Time;durP1;ratioP1;P1;durP2;ratioP2;P2;SDS_P1;SDS_P2;PMS_P1;PMS_P2;Temp;Humidity;BMP_temperature;BMP_pressure;BME280_temperature;BME280_humidity;BME280_pressure;Samples;Min_cycle;Max_cycle;Signal;HPM_P1;HPM_P2
2022/09/05 00:02:32;;;;;;;8.50;7.42;;;;;;;12.80;78.03;98018.03;1743863;82;25768;-88
2022/09/05 00:05:28;;;;;;;8.68;7.75;;;;;;;12.76;78.04;98027.09;1725841;82;25817;-88
2022/09/05 00:08:44;;;;;;;8.15;7.28;;;;;;;12.73;77.96;98021.25;1743986;82;25666;-89
2022/09/05 00:11:43;;;;;;;10.75;6.85;;;;;;;12.65;77.93;98020.13;1743830;81;25681;-88
2022/09/05 00:15:10;;;;;;;9.35;7.28;;;;;;;12.60;78.08;98025.64;1700543;82;27637;-89
2022/09/05 00:18:27;;;;;;;7.75;6.80;;;;;;;12.57;78.10;98023.86;1725904;83;25940;-89
2022/09/05 00:21:53;;;;;;;7.60;6.87;;;;;;;12.51;78.19;98020.65;1727166;83;25730;-88
2022/09/05 00:24:54;;;;;;;7.87;7.10;;;;;;;12.47;78.33;98022.93;1729305;82;25727;-90
2022/09/05 00:27:50;;;;;;;9.55;7.37;;;;;;;12.47;78.43;98022.93;1724788;82;25967;-92
2022/09/05 00:31:07;;;;;;;9.08;7.78;;;;;;;12.47;78.54;98010.75;1721029;82;26092;-90
2022/09/05 00:34:06;;;;;;;8.30;7.50;;;;;;;12.46;78.66;98017.20;1735872;82;25252;-90
2022/09/05 00:36:53;;;;;;;9.70;6.55;;;;;;;12.45;78.81;98015.53;1735609;82;25663;-90
2022/09/05 00:39:41;;;;;;;8.60;7.70;;;;;;;12.40;78.75;98013.16;1727132;83;25762;-90
2022/09/05 00:42:25;;;;;;;9.48;7.65;;;;;;;12.38;78.91;98012.52;1727575;83;25781;-90
2022/09/05 00:45:28;;;;;;;10.58;8.93;;;;;;;12.38;79.10;98013.36;1722468;83;25692;-91
2022/09/05 00:48:52;;;;;;;12.73;8.15;;;;;;;12.39;79.25;98013.67;1718178;83;26557;-90
2022/09/05 00:52:11;;;;;;;8.90;8.00;;;;;;;12.44;79.32;98017.92;1727289;82;26366;-89
2022/09/05 00:55:16;;;;;;;10.05;8.35;;;;;;;12.46;79.37;98013.66;1727345;82;25888;-89
2022/09/05 00:58:24;;;;;;;10.90;9.38;;;;;;;12.46;79.52;98010.95;1727334;83;25884;-90
2022/09/05 01:01:24;;;;;;;15.70;10.95;;;;;;;12.45;79.67;98008.77;1727654;82;27509;-89
2022/09/05 01:04:20;;;;;;;14.75;11.73;;;;;;;12.48;79.85;98004.81;1721265;83;25720;-89
2022/09/05 01:07:50;;;;;;;17.95;12.00;;;;;;;12.49;80.01;98007.31;1727030;83;25737;-88
2022/09/05 01:11:02;;;;;;;13.03;10.75;;;;;;;12.52;80.04;98006.91;1724372;83;26115;-89
2022/09/05 01:14:25;;;;;;;17.87;11.93;;;;;;;12.56;80.10;98006.78;1731959;82;25706;-90
2022/09/05 01:17:28;;;;;;;16.87;11.65;;;;;;;12.60;80.16;98005.84;1713034;82;25851;-88
2022/09/05 01:20:47;;;;;;;14.98;11.95;;;;;;;12.61;80.24;98001.58;1732789;82;25332;-89
2022/09/05 01:24:01;;;;;;;16.90;11.75;;;;;;;12.62;80.23;98003.25;1722466;82;26467;-90
2022/09/05 01:27:35;;;;;;;14.30;11.40;;;;;;;12.66;80.27;98012.31;1683240;83;25803;-89
2022/09/05 01:30:30;;;;;;;16.25;11.90;;;;;;;12.67;80.31;98003.15;1733064;82;25666;-89
2022/09/05 01:33:35;;;;;;;15.68;11.55;;;;;;;12.68;80.38;98010.23;1732787;82;25663;-87
2022/09/05 01:36:31;;;;;;;19.45;13.60;;;;;;;12.69;80.40;98005.09;1732685;82;25268;-89
2022/09/05 01:39:51;;;;;;;14.43;12.15;;;;;;;12.71;80.41;98012.50;1732878;82;25762;-89
2022/09/05 01:42:51;;;;;;;21.33;13.32;;;;;;;12.71;80.41;98009.80;1663891;83;25787;-88
2022/09/05 01:46:22;;;;;;;16.95;12.63;;;;;;;12.71;80.47;98012.50;1645965;85;25804;-89
2022/09/05 01:49:13;;;;;;;16.73;11.53;;;;;;;12.71;80.50;98003.85;1666714;85;25638;-87
2022/09/05 01:52:51;;;;;;;16.07;11.73;;;;;;;12.72;80.57;98008.75;1706014;83;25818;-89
2022/09/05 01:56:10;;;;;;;15.55;10.90;;;;;;;12.71;80.52;98010.63;1706203;83;25788;-88
2022/09/05 01:59:04;;;;;;;19.52;13.03;;;;;;;12.70;80.52;98009.48;1705982;84;25849;-88
2022/09/05 02:02:17;;;;;;;17.57;12.45;;;;;;;12.71;80.51;98011.14;1686041;84;25797;-88
2022/09/05 02:05:31;;;;;;;17.67;11.97;;;;;;;12.70;80.42;98016.25;1704674;84;25802;-88
2022/09/05 02:08:41;;;;;;;12.80;11.40;;;;;;;12.69;80.45;98015.94;1665095;84;25925;-88
2022/09/05 02:11:57;;;;;;;13.55;10.58;;;;;;;12.66;80.43;98018.56;1672569;84;25797;-87
2022/09/05 02:14:52;;;;;;;12.75;10.30;;;;;;;12.63;80.44;98011.69;1682582;84;25748;-87
2022/09/05 02:17:45;;;;;;;14.53;10.00;;;;;;;12.65;80.41;98013.36;1705500;83;25813;-87
2022/09/05 02:20:41;;;;;;;17.35;11.68;;;;;;;12.65;80.37;98016.06;1700903;82;25778;-88
2022/09/05 02:23:56;;;;;;;12.07;10.53;;;;;;;12.65;80.34;98016.06;1735308;82;26457;-87
2022/09/05 02:27:06;;;;;;;13.43;11.00;;;;;;;12.65;80.36;98018.77;1721596;82;25793;-89
2022/09/05 02:30:13;;;;;;;11.33;9.85;;;;;;;12.58;80.35;98011.47;1729980;82;25753;-88
2022/09/05 02:33:23;;;;;;;12.75;10.70;;;;;;;12.62;80.35;98014.08;1711671;82;25734;-88
2022/09/05 02:36:36;;;;;;;13.00;10.30;;;;;;;12.59;80.38;98011.78;1730635;82;25712;-88
2022/09/05 02:39:55;;;;;;;;;;;;;;;12.58;80.37;98007.92;1678115;84;25745;-88
2022/09/05 02:42:55;;;;;;;14.18;9.93;;;;;;;12.54;80.44;98010.23;1707147;82;25732;-88
2022/09/05 02:46:20;;;;;;;12.58;9.43;;;;;;;12.49;80.45;98018.14;1684375;83;25793;-87
2022/09/05 02:49:44;;;;;;;12.95;8.70;;;;;;;12.43;80.44;98010.88;1710102;83;25686;-87
2022/09/05 02:52:30;;;;;;;;;;;;;;;12.38;80.51;98013.36;1629492;83;25872;-87
2022/09/05 02:55:28;;;;;;;16.50;10.23;;;;;;;12.37;80.70;98011.69;1683581;83;25286;-87
2022/09/05 02:58:43;;;;;;;18.10;11.15;;;;;;;12.34;80.72;98010.74;1702741;82;25674;-87
2022/09/05 03:02:01;;;;;;;14.35;10.23;;;;;;;12.33;80.75;98004.17;1727257;82;25813;-87
2022/09/05 03:05:09;;;;;;;14.65;10.18;;;;;;;12.33;80.73;98009.08;1667178;83;25905;-88
2022/09/05 03:08:36;;;;;;;13.40;10.05;;;;;;;12.33;80.70;98010.42;1713828;82;25814;-89
2022/09/05 03:12:04;;;;;;;13.62;10.05;;;;;;;12.32;80.74;98000.64;1712241;83;25783;-88
2022/09/05 03:15:20;;;;;;;13.13;9.73;;;;;;;12.32;80.73;98010.11;1733448;82;25224;-87
2022/09/05 03:18:52;;;;;;;19.10;10.55;;;;;;;12.30;80.69;98005.45;1708726;82;26434;-88
2022/09/05 03:22:06;;;;;;;13.68;9.95;;;;;;;12.27;80.67;98005.86;1710293;83;25256;-87
2022/09/05 03:25:02;;;;;;;13.00;10.40;;;;;;;12.26;80.72;98009.60;1719014;82;27542;-87
2022/09/05 03:28:20;;;;;;;14.45;10.58;;;;;;;12.24;80.65;98008.97;1733295;82;25693;-87
2022/09/05 03:31:45;;;;;;;15.05;10.85;;;;;;;12.23;80.70;98007.30;1660921;85;25818;-87
2022/09/05 03:34:53;;;;;;;12.33;9.15;;;;;;;12.23;80.74;98010.01;1684629;84;25818;-88
2022/09/05 03:37:55;;;;;;;11.35;10.05;;;;;;;12.23;80.69;98019.48;1684478;84;26594;-87
2022/09/05 03:41:04;;;;;;;13.58;9.40;;;;;;;12.22;80.66;98021.88;1684793;84;25640;-89
2022/09/05 03:44:00;;;;;;;10.95;9.00;;;;;;;12.20;80.68;98023.43;1684439;84;25866;-89
2022/09/05 03:47:17;;;;;;;11.30;8.48;;;;;;;12.16;80.70;98026.77;1684596;84;25354;-89
2022/09/05 03:50:29;;;;;;;16.73;8.53;;;;;;;12.15;80.60;98030.52;1683988;84;26138;-90
2022/09/05 03:53:26;;;;;;;12.15;8.58;;;;;;;12.14;80.58;98027.49;1673360;84;25897;-90
2022/09/05 03:56:39;;;;;;;15.08;8.50;;;;;;;12.12;80.49;98028.22;1629393;84;25839;-88
2022/09/05 04:00:11;;;;;;;11.78;8.33;;;;;;;12.08;80.46;98026.95;1629289;85;25879;-89
2022/09/05 04:03:20;;;;;;;9.48;7.90;;;;;;;12.07;80.49;98027.50;1661137;85;25485;-89
2022/09/05 04:06:21;;;;;;;10.43;7.92;;;;;;;12.06;80.49;98033.11;1660919;85;25914;-89
2022/09/05 04:09:23;;;;;;;9.43;8.43;;;;;;;12.05;80.50;98036.86;1685745;82;25790;-89
2022/09/05 04:12:29;;;;;;;11.10;9.18;;;;;;;12.06;80.45;98038.00;1726383;82;25687;-89
2022/09/05 04:15:56;;;;;;;10.15;8.48;;;;;;;12.08;80.54;98049.95;1733017;82;25841;-88
2022/09/05 04:19:14;;;;;;;18.73;11.63;;;;;;;12.06;80.63;98042.06;1666366;83;25757;-90
2022/09/05 04:22:22;;;;;;;14.07;11.00;;;;;;;12.09;80.73;98050.27;1679101;83;25761;-88
2022/09/05 04:25:33;;;;;;;20.12;10.55;;;;;;;12.09;80.75;98040.28;1718702;82;25671;-87
2022/09/05 04:28:38;;;;;;;13.30;11.20;;;;;;;12.10;80.78;98041.95;1689048;83;25913;-88
2022/09/05 04:32:04;;;;;;;13.25;10.82;;;;;;;12.10;80.80;98053.29;1712085;82;26557;-88
2022/09/05 04:35:11;;;;;;;14.38;10.03;;;;;;;12.11;80.92;98056.31;1686903;82;25438;-87
2022/09/05 04:38:18;;;;;;;11.50;9.95;;;;;;;12.11;80.91;98061.73;1705764;82;25855;-86
2022/09/05 04:41:19;;;;;;;37.40;10.00;;;;;;;12.10;81.05;98059.54;1707310;82;25856;-87
2022/09/05 04:44:13;;;;;;;21.33;10.28;;;;;;;12.12;81.05;98063.39;1733324;81;25646;-87
2022/09/05 04:47:03;;;;;;;11.75;10.43;;;;;;;12.12;81.12;98062.04;1733049;82;25735;-85
2022/09/05 04:50:18;;;;;;;16.30;11.12;;;;;;;12.11;81.17;98064.44;1711138;83;25295;-86
2022/09/05 04:53:51;;;;;;;19.25;11.33;;;;;;;12.13;81.26;98074.54;1701335;82;25798;-87
2022/09/05 04:56:42;;;;;;;20.35;11.15;;;;;;;12.10;81.27;98080.35;1683758;84;25265;-87
2022/09/05 04:59:32;;;;;;;13.10;10.40;;;;;;;12.06;81.38;98081.82;1700397;83;25770;-86
2022/09/05 05:02:25;;;;;;;13.98;11.35;;;;;;;12.03;81.42;98086.28;1709400;83;25901;-86
2022/09/05 05:05:24;;;;;;;21.87;12.70;;;;;;;12.04;81.53;98092.01;1733284;82;25650;-87
2022/09/05 05:08:34;;;;;;;17.55;12.98;;;;;;;12.10;81.53;98089.83;1670282;83;25887;-86
2022/09/05 05:11:49;;;;;;;17.35;13.62;;;;;;;12.10;81.36;98097.42;1679269;83;25762;-87
2022/09/05 05:14:41;;;;;;;15.03;12.58;;;;;;;12.13;81.31;98104.31;1693622;83;25771;-86
2022/09/05 05:17:55;;;;;;;17.30;11.85;;;;;;;12.13;81.27;98108.36;1729345;82;25845;-87
2022/09/05 05:21:06;;;;;;;22.25;12.78;;;;;;;12.12;81.27;98112.11;1702711;83;25812;-87
2022/09/05 05:24:08;;;;;;;23.60;12.33;;;;;;;12.03;81.20;98113.34;1727402;83;25300;-87
2022/09/05 05:27:11;;;;;;;14.68;12.35;;;;;;;12.04;81.35;98109.59;1662031;84;25644;-87
2022/09/05 05:30:06;;;;;;;16.37;12.45;;;;;;;12.06;81.55;98111.07;1727311;83;25622;-87
2022/09/05 05:32:54;;;;;;;18.12;12.30;;;;;;;12.10;81.69;98113.66;1727346;83;26030;-87
2022/09/05 05:35:40;;;;;;;15.20;12.07;;;;;;;12.14;81.66;98107.33;1685352;83;26403;-88
2022/09/05 05:38:54;;;;;;;10.75;9.65;;;;;;;12.16;81.66;98110.16;1697494;83;25771;-87
2022/09/05 05:41:43;;;;;;;11.50;9.58;;;;;;;12.23;81.68;98116.92;1722782;83;26715;-88
2022/09/05 05:44:32;;;;;;;12.30;9.63;;;;;;;12.29;81.63;98111.23;1726935;83;25672;-88
2022/09/05 05:47:42;;;;;;;14.03;9.60;;;;;;;12.35;81.61;98113.09;1727167;83;25702;-87
2022/09/05 05:51:05;;;;;;;16.07;10.38;;;;;;;12.41;81.41;98116.35;1727195;83;26467;-88
2022/09/05 05:54:01;;;;;;;11.85;10.65;;;;;;;12.32;81.06;98117.04;1714926;83;26435;-88
2022/09/05 05:57:00;;;;;;;13.10;9.80;;;;;;;12.21;81.20;98117.64;1669109;83;25819;-88
2022/09/05 06:00:05;;;;;;;12.45;10.28;;;;;;;12.20;81.42;98125.44;1714304;83;25703;-88
2022/09/05 06:03:31;;;;;;;17.85;10.98;;;;;;;12.22;81.59;98124.72;1727207;83;25846;-87
2022/09/05 06:07:10;;;;;;;11.68;10.53;;;;;;;12.28;81.71;98126.63;1727349;83;25770;-89
2022/09/05 06:10:26;;;;;;;13.03;10.95;;;;;;;12.33;81.75;98126.83;1727180;83;25436;-87
2022/09/05 06:13:45;;;;;;;13.18;11.00;;;;;;;12.44;81.95;98119.98;1727170;83;25817;-87
2022/09/05 06:16:50;;;;;;;10.85;9.40;;;;;;;12.52;82.07;98125.22;1726750;82;27479;-87
2022/09/05 06:20:11;;;;;;;11.68;9.75;;;;;;;12.58;82.11;98118.44;1696655;83;25742;-86
2022/09/05 06:23:33;;;;;;;9.68;8.68;;;;;;;12.69;82.06;98122.41;1721302;82;25746;-85
2022/09/05 06:26:48;;;;;;;9.85;8.55;;;;;;;12.78;81.95;98131.19;1678669;83;25790;-85
2022/09/05 06:30:07;;;;;;;9.10;7.90;;;;;;;12.87;81.97;98129.93;1696888;83;25723;-86
2022/09/05 06:33:28;;;;;;;10.30;9.10;;;;;;;12.99;82.02;98124.20;1727851;82;25600;-85
2022/09/05 06:37:05;;;;;;;10.38;9.38;;;;;;;13.08;81.80;98118.87;1658446;85;25838;-85
2022/09/05 06:40:24;;;;;;;9.25;8.33;;;;;;;13.14;81.75;98124.85;1631409;87;25970;-85
2022/09/05 06:43:47;;;;;;;9.43;8.53;;;;;;;13.27;81.73;98123.48;1647588;86;25814;-85
2022/09/05 06:46:40;;;;;;;11.97;8.53;;;;;;;13.42;81.77;98134.59;1658457;85;25830;-86
2022/09/05 06:49:58;;;;;;;10.25;8.28;;;;;;;13.48;81.56;98136.47;1655143;86;25788;-86
2022/09/05 06:52:48;;;;;;;10.00;8.53;;;;;;;13.54;81.58;98128.30;1654850;86;25971;-86
2022/09/05 06:56:00;;;;;;;11.35;9.28;;;;;;;13.68;81.60;98134.53;1649024;86;25970;-85
2022/09/05 06:59:34;;;;;;;10.65;9.65;;;;;;;13.77;81.44;98135.95;1613975;87;25880;-85
2022/09/05 07:02:33;;;;;;;11.28;9.28;;;;;;;13.83;81.24;98133.76;1624228;87;25797;-86
2022/09/05 07:05:39;;;;;;;10.25;9.25;;;;;;;13.92;81.33;98135.17;1589550;87;25714;-86
2022/09/05 07:08:34;;;;;;;10.72;9.68;;;;;;;14.03;81.58;98131.78;1624886;87;25819;-86
2022/09/05 07:11:42;;;;;;;10.82;9.68;;;;;;;14.18;81.49;98133.39;1625104;87;25768;-86
2022/09/05 07:14:32;;;;;;;10.43;9.08;;;;;;;14.28;81.24;98135.11;1732688;82;26139;-88
2022/09/05 07:17:31;;;;;;;10.48;9.33;;;;;;;14.39;81.18;98142.57;1678251;83;25785;-87
2022/09/05 07:20:34;;;;;;;10.05;9.10;;;;;;;14.48;81.17;98139.96;1668701;83;25840;-87
2022/09/05 07:23:28;;;;;;;9.25;8.35;;;;;;;14.59;81.06;98135.70;1700408;83;25766;-88
2022/09/05 07:26:15;;;;;;;9.68;8.70;;;;;;;14.72;81.15;98133.73;1707239;83;25707;-87
2022/09/05 07:29:04;;;;;;;9.43;8.03;;;;;;;14.89;80.98;98135.89;1710273;83;25730;-90
2022/09/05 07:31:55;;;;;;;9.53;8.53;;;;;;;15.12;80.81;98134.76;1707131;83;26353;-89
2022/09/05 07:34:45;;;;;;;9.98;8.23;;;;;;;15.36;80.71;98129.83;1698805;83;25603;-89
2022/09/05 07:37:37;;;;;;;9.85;7.67;;;;;;;15.73;80.52;98131.25;1710055;83;25272;-90
2022/09/05 07:40:23;;;;;;;7.80;7.00;;;;;;;16.17;79.99;98130.94;1702410;83;25722;-90
2022/09/05 07:43:15;;;;;;;7.97;7.17;;;;;;;16.64;79.50;98124.34;1701942;83;25679;-89
2022/09/05 07:46:24;;;;;;;7.22;6.53;;;;;;;17.11;78.98;98113.52;1694527;83;25817;-88
2022/09/05 07:49:17;;;;;;;7.25;6.50;;;;;;;17.58;78.30;98122.00;1671004;83;25819;-90
2022/09/05 07:52:13;;;;;;;7.33;6.37;;;;;;;18.06;77.58;98116.78;1698363;83;26412;-90
2022/09/05 07:55:00;;;;;;;6.90;6.12;;;;;;;18.57;77.15;98119.14;1706284;83;25983;-88
2022/09/05 07:57:46;;;;;;;6.53;5.67;;;;;;;19.04;76.05;98117.83;1681535;84;25249;-85
2022/09/05 08:00:32;;;;;;;5.87;4.83;;;;;;;19.52;75.59;98115.05;1665790;83;25683;-86
2022/09/05 08:03:25;;;;;;;5.33;4.67;;;;;;;19.90;74.28;98114.22;1709906;83;25726;-87
2022/09/05 08:06:18;;;;;;;5.17;4.58;;;;;;;20.31;73.05;98116.90;1710055;83;25762;-90
2022/09/05 08:09:08;;;;;;;5.03;4.53;;;;;;;21.15;70.99;98110.36;1709609;83;25719;-90
2022/09/05 08:12:01;;;;;;;4.70;4.22;;;;;;;21.15;70.99;98110.36;1709651;83;25791;-91
2022/09/05 08:15:23;;;;;;;4.00;3.58;;;;;;;21.60;69.68;98111.83;1709864;83;25794;-92
2022/09/05 08:18:20;;;;;;;4.35;3.70;;;;;;;21.95;67.14;98107.08;1714098;81;25801;-89
2022/09/05 08:21:13;;;;;;;4.40;3.67;;;;;;;22.46;66.76;98105.36;1725748;82;25591;-92
2022/09/05 08:24:15;;;;;;;3.65;3.30;;;;;;;22.93;65.58;98104.41;1704163;81;25675;-89
2022/09/05 08:27:17;;;;;;;6.67;3.60;;;;;;;23.22;64.90;98102.73;1712038;81;25777;-88
2022/09/05 08:30:09;;;;;;;3.58;3.30;;;;;;;23.34;63.78;98102.45;1721579;81;25289;-88
2022/09/05 08:33:01;;;;;;;4.15;3.10;;;;;;;23.60;62.69;98096.40;1740031;81;26237;-89
2022/09/05 08:35:51;;;;;;;3.67;3.02;;;;;;;23.87;62.03;98099.65;1735104;81;25733;-90
2022/09/05 08:38:41;;;;;;;4.47;2.95;;;;;;;24.23;61.05;98096.79;1747372;81;25765;-91
2022/09/05 08:41:47;;;;;;;4.03;3.30;;;;;;;24.48;59.84;98093.91;1749393;82;25733;-89
2022/09/05 08:44:50;;;;;;;4.58;3.58;;;;;;;24.63;59.38;98089.69;1736820;81;25843;-91
2022/09/05 08:48:17;;;;;;;5.20;3.92;;;;;;;24.92;59.21;98086.16;1746070;81;26175;-91
2022/09/05 08:51:27;;;;;;;4.03;3.62;;;;;;;25.04;58.04;98081.13;1703438;81;25710;-90
2022/09/05 08:54:17;;;;;;;5.90;3.80;;;;;;;25.27;57.68;98081.75;1716767;81;25818;-88
2022/09/05 08:57:20;;;;;;;4.37;3.30;;;;;;;25.36;57.02;98080.00;1711043;83;25849;-89
2022/09/05 09:00:08;;;;;;;4.05;3.65;;;;;;;25.19;55.82;98072.72;1731173;81;25722;-88
2022/09/05 09:03:20;;;;;;;3.98;3.58;;;;;;;25.05;55.65;98065.65;1702701;81;25745;-87
2022/09/05 09:06:16;;;;;;;6.17;3.23;;;;;;;25.17;55.46;98068.03;1729675;81;25812;-90
2022/09/05 09:09:11;;;;;;;3.30;3.00;;;;;;;25.24;55.03;98067.13;1714440;81;25802;-89
2022/09/05 09:12:34;;;;;;;3.05;2.83;;;;;;;25.43;54.51;98063.92;1739880;82;25828;-90
2022/09/05 09:15:33;;;;;;;6.25;3.50;;;;;;;25.45;53.54;98065.84;1748940;81;25682;-90
2022/09/05 09:18:20;;;;;;;3.70;3.40;;;;;;;25.53;53.41;98059.41;1726337;80;25906;-89
2022/09/05 09:21:41;;;;;;;14.60;3.80;;;;;;;25.70;53.17;98059.81;1732704;81;25822;-89
2022/09/05 09:24:43;;;;;;;3.50;3.20;;;;;;;25.84;52.83;98058.00;1748624;81;26186;-89
2022/09/05 09:28:22;;;;;;;9.00;3.72;;;;;;;25.94;52.41;98055.67;1710540;82;25760;-90
2022/09/05 09:31:49;;;;;;;3.40;3.10;;;;;;;26.00;51.77;98056.69;1748836;81;26117;-90
2022/09/05 09:34:54;;;;;;;3.85;2.77;;;;;;;26.22;50.79;98058.06;1748920;81;26298;-91
2022/09/05 09:38:01;;;;;;;5.55;3.35;;;;;;;26.31;50.31;98057.72;1722554;81;25446;-90
2022/09/05 09:41:29;;;;;;;3.12;2.83;;;;;;;26.48;49.61;98049.71;1745567;81;25696;-90
2022/09/05 09:44:29;;;;;;;3.50;3.15;;;;;;;26.63;49.48;98048.11;1717176;81;25694;-90
2022/09/05 09:47:17;;;;;;;2.90;2.70;;;;;;;26.85;49.54;98046.94;1727763;81;25742;-92
2022/09/05 09:50:20;;;;;;;4.78;3.45;;;;;;;26.75;47.89;98049.87;1749012;81;25603;-91
2022/09/05 09:53:16;;;;;;;5.85;3.60;;;;;;;26.64;47.58;98049.77;1748490;81;25804;-91
2022/09/05 09:56:40;;;;;;;3.35;3.05;;;;;;;26.69;47.63;98052.44;1711420;81;25336;-91
2022/09/05 09:59:59;;;;;;;4.15;3.50;;;;;;;26.63;47.60;98052.27;1711328;81;25852;-91
2022/09/05 10:03:00;;;;;;;3.92;3.52;;;;;;;26.74;47.55;98045.45;1712339;81;25291;-91
2022/09/05 10:05:53;;;;;;;3.75;3.35;;;;;;;26.75;46.77;98047.09;1748936;81;27414;-91
2022/09/05 10:09:15;;;;;;;3.95;3.20;;;;;;;26.84;46.77;98046.67;1718102;83;25717;-92
2022/09/05 10:12:28;;;;;;;3.52;3.17;;;;;;;26.90;46.25;98046.04;1719843;82;25725;-92
2022/09/05 10:15:43;;;;;;;3.85;3.35;;;;;;;26.79;45.85;98042.61;1717741;82;25768;-90
2022/09/05 10:19:05;;;;;;;3.50;3.15;;;;;;;26.81;46.21;98041.73;1698138;82;25761;-95
2022/09/05 10:22:01;;;;;;;4.67;3.50;;;;;;;26.84;45.62;98038.36;1706272;82;26391;-91
2022/09/05 10:25:07;;;;;;;4.00;3.17;;;;;;;26.92;46.13;98031.89;1744600;81;25501;-92
2022/09/05 10:28:21;;;;;;;3.80;3.30;;;;;;;26.88;45.23;98031.10;1668554;84;26558;-90
2022/09/05 10:31:18;;;;;;;6.15;3.17;;;;;;;26.84;45.03;98030.61;1639011;85;25808;-91
2022/09/05 10:34:17;;;;;;;4.85;3.83;;;;;;;26.79;44.93;98023.79;1625511;87;26388;-92
2022/09/05 10:37:07;;;;;;;5.20;3.60;;;;;;;26.89;45.57;98025.83;1614932;86;27690;-89
2022/09/05 10:39:56;;;;;;;4.37;3.70;;;;;;;26.86;45.28;98025.04;1649680;86;25849;-93
2022/09/05 10:42:57;;;;;;;4.05;3.67;;;;;;;26.99;45.17;98023.47;1649806;85;25726;-91
2022/09/05 10:45:59;;;;;;;4.00;3.60;;;;;;;26.94;44.81;98019.95;1653200;85;25383;-96
2022/09/05 10:48:49;;;;;;;5.53;3.55;;;;;;;26.90;44.53;98025.27;1635798;85;25839;-91
2022/09/05 10:51:48;;;;;;;5.92;3.50;;;;;;;26.92;44.70;98023.58;1641233;85;25913;-90
2022/09/05 10:54:59;;;;;;;6.12;3.80;;;;;;;26.90;44.54;98019.16;1661395;85;25317;-93
2022/09/05 10:58:12;;;;;;;4.08;3.30;;;;;;;26.88;44.84;98028.33;1648436;85;25796;-91
2022/09/05 11:01:15;;;;;;;;;;;;;;;26.77;43.58;98017.16;1658989;85;25751;-89
2022/09/05 11:04:38;;;;;;;5.80;3.70;;;;;;;26.70;43.47;98011.16;1631902;85;25902;-90
2022/09/05 11:07:40;;;;;;;5.25;3.80;;;;;;;26.68;44.82;98007.08;1656101;84;25888;-89
2022/09/05 11:10:45;;;;;;;6.03;3.77;;;;;;;26.60;44.26;98003.58;1658069;85;25877;-92
2022/09/05 11:13:49;;;;;;;4.42;3.95;;;;;;;26.59;44.83;98005.53;1668470;85;25938;-93
2022/09/05 11:16:45;;;;;;;4.90;3.67;;;;;;;26.56;44.42;97999.23;1668767;85;25883;-94
2022/09/05 11:19:40;;;;;;;6.92;4.05;;;;;;;26.56;44.50;97996.46;1667148;84;25357;-92
2022/09/05 11:22:31;;;;;;;5.83;3.77;;;;;;;26.43;44.14;98004.13;1689083;84;26752;-93
2022/09/05 11:25:20;;;;;;;7.87;3.87;;;;;;;26.35;44.02;98002.02;1688939;84;25357;-88
2022/09/05 11:28:10;;;;;;;5.97;3.30;;;;;;;26.31;44.00;97999.60;1688675;84;25764;-88
2022/09/05 11:30:57;;;;;;;4.33;3.70;;;;;;;26.13;44.52;97993.72;1680784;84;25874;-89
2022/09/05 11:34:10;;;;;;;5.92;3.62;;;;;;;26.12;44.11;97995.39;1652055;84;25848;-89
2022/09/05 11:37:00;;;;;;;5.90;3.52;;;;;;;26.12;44.36;97999.55;1688790;84;25794;-90
2022/09/05 11:40:39;;;;;;;6.42;3.87;;;;;;;26.15;44.50;97990.66;1688564;84;25927;-90
2022/09/05 11:44:13;;;;;;;6.50;4.37;;;;;;;26.06;44.36;97996.59;1743616;82;25688;-89
2022/09/05 11:47:23;;;;;;;5.00;3.90;;;;;;;26.03;44.26;97991.09;1744042;82;25785;-90
2022/09/05 11:50:46;;;;;;;5.53;4.33;;;;;;;25.96;44.01;97993.97;1741125;82;25783;-89
2022/09/05 11:53:52;;;;;;;;;;;;;;;25.97;44.20;97988.11;1737452;82;25792;-92
2022/09/05 11:57:04;;;;;;;6.10;4.50;;;;;;;26.04;43.39;97989.15;1714248;82;25775;-89
2022/09/05 12:00:20;;;;;;;7.08;4.17;;;;;;;25.89;44.11;97991.55;1719087;82;25730;-89
2022/09/05 12:03:46;;;;;;;5.53;4.10;;;;;;;25.78;43.96;97985.89;1743587;82;25888;-89
2022/09/05 12:06:36;;;;;;;5.65;4.20;;;;;;;25.80;44.32;97983.66;1743737;82;25256;-91
2022/09/05 12:09:59;;;;;;;5.83;4.25;;;;;;;25.88;44.81;97985.75;1745184;81;25707;-91
2022/09/05 12:13:01;;;;;;;7.00;3.67;;;;;;;25.98;44.63;97988.94;1743796;82;25753;-88
2022/09/05 12:15:46;;;;;;;7.95;4.00;;;;;;;25.98;44.02;97991.14;1718873;81;25824;-90
2022/09/05 12:21:38;;;;;;;10.72;3.70;;;;;;;26.09;44.10;97984.36;1718232;82;25751;-89
2022/09/05 12:24:40;;;;;;;6.50;4.20;;;;;;;25.94;43.25;97981.81;1707257;83;25789;-91
2022/09/05 12:27:30;;;;;;;8.73;4.35;;;;;;;25.87;43.53;97981.34;1657980;85;25870;-89
2022/09/05 12:30:30;;;;;;;5.72;3.83;;;;;;;25.83;43.60;97976.16;1662419;85;25854;-90
2022/09/05 12:33:29;;;;;;;6.80;4.53;;;;;;;25.75;43.29;97980.94;1681103;85;25965;-88
2022/09/05 12:36:27;;;;;;;9.88;4.15;;;;;;;25.66;43.80;97966.13;1680727;84;25956;-88
2022/09/05 12:39:48;;;;;;;8.25;4.15;;;;;;;25.65;43.91;97970.02;1657328;83;25790;-92
2022/09/05 12:42:55;;;;;;;8.48;4.75;;;;;;;25.69;43.73;97968.31;1659351;85;25866;-88
2022/09/05 12:45:48;;;;;;;7.60;4.05;;;;;;;25.63;43.31;97966.72;1653189;83;25826;-88
2022/09/05 12:48:45;;;;;;;7.75;4.80;;;;;;;25.55;43.78;97965.96;1659363;86;25847;-88
2022/09/05 12:51:36;;;;;;;9.00;4.55;;;;;;;25.58;43.46;97962.61;1685915;84;25815;-87
2022/09/05 12:54:34;;;;;;;6.15;4.58;;;;;;;25.59;43.09;97961.50;1688546;84;25985;-88
2022/09/05 12:57:32;;;;;;;9.75;4.50;;;;;;;25.59;43.01;97958.73;1690195;84;26180;-89
2022/09/05 13:00:20;;;;;;;10.00;4.83;;;;;;;25.36;43.26;97963.12;1688470;82;25759;-89
2022/09/05 13:03:09;;;;;;;7.83;3.87;;;;;;;25.52;43.60;97962.39;1659785;84;25799;-89
2022/09/05 13:06:13;;;;;;;7.95;4.35;;;;;;;25.51;43.00;97957.98;1674198;83;25275;-89
2022/09/05 13:09:06;;;;;;;9.85;4.20;;;;;;;25.38;42.95;97958.13;1715893;83;26341;-89
2022/09/05 13:12:03;;;;;;;7.72;4.33;;;;;;;25.49;43.48;97959.09;1737826;82;25777;-90
2022/09/05 13:15:11;;;;;;;7.58;4.58;;;;;;;25.58;43.69;97947.41;1746897;81;25741;-89
2022/09/05 13:18:10;;;;;;;10.48;4.60;;;;;;;25.51;42.98;97953.84;1744307;81;25814;-92
2022/09/05 13:21:07;;;;;;;7.87;4.10;;;;;;;25.57;42.96;97945.77;1738418;81;25792;-88
2022/09/05 13:24:13;;;;;;;5.97;4.33;;;;;;;25.65;43.28;97952.86;1718014;81;25798;-89
2022/09/05 13:27:12;;;;;;;5.62;4.10;;;;;;;25.74;43.45;97953.84;1734106;81;25738;-89
2022/09/05 13:30:01;;;;;;;9.05;4.55;;;;;;;25.80;43.15;97956.83;1713985;83;26353;-90
2022/09/05 13:32:50;;;;;;;7.83;4.65;;;;;;;25.83;43.02;97955.42;1748536;81;25859;-88
2022/09/05 13:35:48;;;;;;;7.75;4.45;;;;;;;25.80;43.07;97947.70;1748524;81;25783;-88
2022/09/05 13:39:05;;;;;;;13.83;4.45;;;;;;;25.74;42.87;97951.64;1748687;81;26535;-88
2022/09/05 13:42:02;;;;;;;5.42;3.87;;;;;;;25.62;42.74;97948.48;1742116;81;25799;-88
2022/09/05 13:44:52;;;;;;;5.97;4.28;;;;;;;25.49;43.06;97953.57;1741357;81;25787;-88
2022/09/05 13:48:11;;;;;;;7.33;4.33;;;;;;;25.55;43.02;97949.38;1716703;81;25791;-88
2022/09/05 13:51:04;;;;;;;7.00;4.45;;;;;;;25.56;42.75;97950.47;1748785;81;25698;-87
2022/09/05 13:53:54;;;;;;;6.58;3.85;;;;;;;25.51;42.92;97950.52;1748661;81;25788;-87
2022/09/05 13:57:15;;;;;;;6.25;4.30;;;;;;;25.51;42.93;97947.75;1748486;81;25717;-88
2022/09/05 14:00:14;;;;;;;6.50;4.45;;;;;;;25.52;42.92;97949.95;1728684;81;26368;-91
2022/09/05 14:03:33;;;;;;;8.50;4.40;;;;;;;25.40;42.37;97941.52;1745222;81;25809;-91
2022/09/05 14:07:00;;;;;;;5.78;4.25;;;;;;;25.41;42.92;97947.31;1625294;86;26023;-90
2022/09/05 14:10:14;;;;;;;9.33;4.42;;;;;;;25.42;42.94;97946.20;1599469;88;26017;-88
2022/09/05 14:13:17;;;;;;;6.05;4.25;;;;;;;25.35;42.38;97944.92;1639819;87;25842;-87
2022/09/05 14:16:10;;;;;;;8.40;4.30;;;;;;;25.15;42.76;97938.22;1614341;87;25979;-88
2022/09/05 14:22:04;;;;;;;4.97;4.25;;;;;;;25.16;43.04;97944.01;1661557;85;25840;-88
2022/09/05 14:24:49;;;;;;;7.78;4.47;;;;;;;25.22;42.86;97936.77;1677084;84;27497;-88
2022/09/05 14:27:38;;;;;;;7.03;4.75;;;;;;;25.20;42.38;97933.47;1678846;84;25884;-87
2022/09/05 14:30:08;;;;;;;7.50;4.33;;;;;;;25.05;42.39;97928.10;1678383;84;25886;-87
2022/09/05 14:32:53;;;;;;;5.28;4.12;;;;;;;25.03;42.56;97933.92;1628193;85;25859;-87